createdAt,value
2023-12-08T00:01:22.832Z,99903.21
2023-12-08T00:05:20.780Z,99908.42
2023-12-08T00:09:18.861Z,99907.20
2023-12-08T00:13:16.845Z,99895.91
2023-12-08T00:17:14.805Z,99894.73
2023-12-08T00:21:12.871Z,99886.73
2023-12-08T00:25:10.805Z,99886.58
2023-12-08T00:29:08.796Z,99889.14
2023-12-08T00:33:06.915Z,99890.77
2023-12-08T00:37:05.764Z,99890.24
2023-12-08T00:41:04.794Z,99896.08
2023-12-08T00:45:02.738Z,99904.13
2023-12-08T00:49:00.856Z,99906.21
2023-12-08T00:52:58.730Z,99909.58
2023-12-08T00:56:56.761Z,99908.98
2023-12-08T01:00:54.786Z,99907.86
2023-12-08T01:04:52.824Z,99910.44
2023-12-08T01:08:50.767Z,99907.15
2023-12-08T01:12:48.781Z,99903.81
2023-12-08T01:16:46.881Z,99894.85
2023-12-08T01:20:44.743Z,99886.16
2023-12-08T01:24:42.709Z,99880.95
2023-12-08T01:28:40.742Z,99870.75
2023-12-08T01:32:38.781Z,99871.65
2023-12-08T01:36:42.469Z,99870.55
2023-12-08T01:40:41.702Z,99863.58
2023-12-08T01:44:39.711Z,99862.52
2023-12-08T01:48:37.767Z,99850.73
2023-12-08T01:52:39.729Z,99842.49
2023-12-08T01:56:37.669Z,99828.37
2023-12-08T02:00:35.752Z,99818.58
2023-12-08T02:04:33.661Z,99825.95
2023-12-08T02:08:32.692Z,99830.73
2023-12-08T02:12:30.642Z,99833.80
2023-12-08T02:16:39.689Z,99836.27
2023-12-08T02:20:37.671Z,99835.50
2023-12-08T02:24:35.603Z,99834.31
2023-12-08T02:28:34.605Z,99838.13
2023-12-08T02:32:47.739Z,99830.26
2023-12-08T02:36:45.614Z,99837.89
2023-12-08T02:40:43.629Z,99833.47
2023-12-08T02:44:34.762Z,99832.36
2023-12-08T02:48:32.667Z,99842.13
2023-12-08T02:52:30.577Z,99852.45
2023-12-08T02:56:28.608Z,99856.91
2023-12-08T03:00:26.555Z,99854.19
2023-12-08T03:04:24.618Z,99846.36
2023-12-08T03:08:22.538Z,99839.83
2023-12-08T03:12:20.622Z,99845.60
2023-12-08T03:16:18.549Z,99854.81
2023-12-08T03:20:16.621Z,99857.50
2023-12-08T03:24:14.544Z,99866.38
2023-12-08T03:28:12.522Z,99881.52
2023-12-08T03:32:10.556Z,99880.06
2023-12-08T03:36:08.543Z,99865.63
2023-12-08T03:40:06.493Z,99851.13
2023-12-08T03:44:04.531Z,99858.11
2023-12-08T03:48:02.620Z,99861.14
2023-12-08T03:52:00.534Z,99869.57
2023-12-08T03:55:58.476Z,99876.18
2023-12-08T03:59:58.546Z,99875.00
2023-12-08T04:03:56.522Z,99863.77
2023-12-08T04:07:54.476Z,99864.56
2023-12-08T04:11:52.520Z,99863.21
2023-12-08T04:15:50.507Z,99872.17
2023-12-08T04:19:48.447Z,99868.92
2023-12-08T04:23:46.601Z,99861.39
2023-12-08T04:27:44.440Z,99864.54
2023-12-08T04:31:42.447Z,99868.50
2023-12-08T04:35:40.479Z,99867.48
2023-12-08T04:39:38.446Z,99867.86
2023-12-08T04:43:36.447Z,99871.64
2023-12-08T04:47:34.551Z,99878.92
2023-12-08T04:51:32.416Z,99882.61
2023-12-08T04:55:30.443Z,99884.92
2023-12-08T04:59:28.422Z,99893.87
2023-12-08T05:03:26.539Z,99896.78
2023-12-08T05:07:24.611Z,99906.06
2023-12-08T05:11:22.378Z,99910.90
2023-12-08T05:15:20.415Z,99916.84
2023-12-08T05:19:18.587Z,99918.35
2023-12-08T05:23:16.347Z,99929.77
2023-12-08T05:27:14.526Z,99941.91
2023-12-08T05:31:12.485Z,99943.96
2023-12-08T05:35:10.365Z,99944.80
2023-12-08T05:39:08.363Z,99940.91
2023-12-08T05:43:06.367Z,99940.49
2023-12-08T05:47:04.339Z,99926.05
2023-12-08T05:51:02.390Z,99924.43
2023-12-08T05:55:00.431Z,99925.13
2023-12-08T05:58:58.384Z,99919.88
2023-12-08T06:02:56.329Z,99913.86
2023-12-08T06:06:54.408Z,99912.84
2023-12-08T06:10:52.274Z,99904.64
2023-12-08T06:14:50.337Z,99902.52
2023-12-08T06:18:48.398Z,99913.77
2023-12-08T06:22:46.281Z,99915.27
2023-12-08T06:26:44.293Z,99914.83
2023-12-08T06:30:42.357Z,99910.77
2023-12-08T06:34:40.395Z,99907.35
2023-12-08T06:38:38.328Z,99903.73
2023-12-08T06:42:36.216Z,99900.35
2023-12-08T06:46:34.279Z,99890.81
2023-12-08T06:50:32.250Z,99892.24
2023-12-08T06:54:30.241Z,99897.46
2023-12-08T06:58:28.265Z,99895.62
2023-12-08T07:02:06.010Z,99895.48
2023-12-08T07:05:30.087Z,99898.36
2023-12-08T07:08:54.271Z,99897.54
2023-12-08T07:12:18.705Z,99897.41
2023-12-08T07:15:42.746Z,99895.58
2023-12-08T07:19:07.125Z,99891.09
2023-12-08T07:22:31.684Z,99884.84
2023-12-08T07:25:55.862Z,99881.95
2023-12-08T07:29:20.405Z,99877.02
2023-12-08T07:32:44.707Z,99873.42
2023-12-08T07:36:09.051Z,99869.63
2023-12-08T07:39:33.177Z,99858.88
2023-12-08T07:42:57.385Z,99853.31
2023-12-08T07:46:21.500Z,99853.98
2023-12-08T07:49:45.746Z,99856.64
2023-12-08T07:53:09.934Z,99857.40
2023-12-08T07:56:35.082Z,99863.31
2023-12-08T07:59:59.436Z,99869.53
2023-12-08T08:03:23.755Z,99871.38
2023-12-08T08:06:48.599Z,99866.92
2023-12-08T08:10:12.744Z,99863.13
2023-12-08T08:13:37.412Z,99867.52
2023-12-08T08:17:01.796Z,99871.17
2023-12-08T08:20:26.867Z,99863.04
2023-12-08T08:23:51.499Z,99869.17
2023-12-08T08:27:15.610Z,99864.02
2023-12-08T08:30:40.471Z,99861.83
2023-12-08T08:34:06.218Z,99857.15
2023-12-08T08:37:30.662Z,99858.36
2023-12-08T08:40:55.004Z,99857.70
2023-12-08T08:44:19.166Z,99857.92
2023-12-08T08:47:43.285Z,99856.44
2023-12-08T08:51:07.969Z,99859.84
2023-12-08T08:54:32.000Z,99861.33
2023-12-08T08:57:56.849Z,99859.92
2023-12-08T09:01:20.932Z,99861.89
2023-12-08T09:04:45.142Z,99860.47
2023-12-08T09:08:10.336Z,99859.59
2023-12-08T09:11:34.348Z,99859.80
2023-12-08T09:14:58.571Z,99856.09
2023-12-08T09:18:22.768Z,99850.38
2023-12-08T09:21:53.849Z,99850.77
2023-12-08T09:25:19.227Z,99847.23
2023-12-08T09:28:43.189Z,99848.36
2023-12-08T09:32:08.331Z,99848.94
2023-12-08T09:35:32.679Z,99853.85
2023-12-08T09:38:56.906Z,99853.02
2023-12-08T09:42:32.521Z,99851.88
2023-12-08T09:45:57.303Z,99845.01
2023-12-08T09:49:30.588Z,99842.92
2023-12-08T09:52:56.178Z,99848.28
2023-12-08T09:56:20.983Z,99850.29
2023-12-08T09:59:47.795Z,99849.50
2023-12-08T10:03:12.046Z,99845.27
2023-12-08T10:06:37.616Z,99845.34
2023-12-08T10:10:02.500Z,99842.27
2023-12-08T10:13:27.358Z,99841.84
2023-12-08T10:16:51.518Z,99847.29
2023-12-08T10:20:16.239Z,99845.39
2023-12-08T10:23:41.206Z,99843.54
2023-12-08T10:27:06.088Z,99847.74
2023-12-08T10:30:30.152Z,99846.86
2023-12-08T10:33:55.644Z,99850.07
2023-12-08T10:37:19.812Z,99853.76
2023-12-08T10:40:51.632Z,99852.73
2023-12-08T10:44:15.678Z,99853.60
2023-12-08T10:47:45.394Z,99850.67
2023-12-08T10:51:15.027Z,99846.29
2023-12-08T10:54:39.356Z,99844.23
2023-12-08T10:58:07.843Z,99840.73
2023-12-08T11:01:36.072Z,99834.92
2023-12-08T11:05:08.952Z,99832.58
2023-12-08T11:08:34.293Z,99831.97
2023-12-08T11:12:04.656Z,99836.55
2023-12-08T11:15:33.847Z,99839.20
2023-12-08T11:18:58.411Z,99841.69
2023-12-08T11:22:22.852Z,99834.89
2023-12-08T11:26:00.539Z,99826.83
2023-12-08T11:29:50.190Z,99821.11
2023-12-08T11:33:29.374Z,99824.09
2023-12-08T11:36:53.462Z,99822.44
2023-12-08T11:40:18.716Z,99819.46
2023-12-08T11:43:47.139Z,99813.02
2023-12-08T11:47:12.305Z,99813.59
2023-12-08T11:50:36.498Z,99818.11
2023-12-08T11:54:06.881Z,99816.52
2023-12-08T11:57:31.316Z,99817.45
2023-12-08T12:00:58.904Z,99820.33
2023-12-08T12:04:24.489Z,99823.69
2023-12-08T12:07:50.810Z,99818.18
2023-12-08T12:11:19.810Z,99819.27
2023-12-08T12:14:49.853Z,99813.92
2023-12-08T12:18:15.521Z,99794.09
2023-12-08T12:21:39.730Z,99786.96
2023-12-08T12:25:04.261Z,99781.61
2023-12-08T12:28:28.500Z,99771.80
2023-12-08T12:31:52.672Z,99769.59
2023-12-08T12:35:17.743Z,99756.94
2023-12-08T12:38:43.857Z,99752.45
2023-12-08T12:42:08.220Z,99736.35
2023-12-08T12:45:34.837Z,99725.20
2023-12-08T12:48:59.484Z,99750.56
2023-12-08T12:52:24.476Z,99759.11
2023-12-08T12:55:50.772Z,99754.27
2023-12-08T12:59:14.953Z,99750.17
2023-12-08T13:02:38.927Z,99753.08
2023-12-08T13:06:02.937Z,99760.23
2023-12-08T13:09:30.589Z,99774.89
2023-12-08T13:12:54.784Z,99785.07
2023-12-08T13:16:19.140Z,99797.32
2023-12-08T13:19:43.243Z,99785.07
2023-12-08T13:23:07.458Z,99780.40
2023-12-08T13:26:33.423Z,99785.36
2023-12-08T13:29:58.357Z,99791.73
2023-12-08T13:33:23.378Z,99770.48
2023-12-08T13:36:47.477Z,99760.27
2023-12-08T13:40:13.464Z,99761.45
2023-12-08T13:43:37.714Z,99753.85
2023-12-08T13:47:01.894Z,99764.33
2023-12-08T13:50:26.035Z,99772.85
2023-12-08T13:53:50.443Z,99771.47
2023-12-08T13:57:14.682Z,99768.34
2023-12-08T14:00:38.785Z,99776.65
2023-12-08T14:04:03.084Z,99787.65
2023-12-08T14:07:27.462Z,99780.98
2023-12-08T14:10:51.711Z,99779.14
2023-12-08T14:14:15.876Z,99778.14
2023-12-08T14:17:40.152Z,99776.13
2023-12-08T14:21:04.500Z,99769.88
2023-12-08T14:24:29.087Z,99760.54
2023-12-08T14:27:53.203Z,99762.48
2023-12-08T14:31:37.620Z,99762.30
2023-12-08T14:35:35.878Z,99763.45
2023-12-08T14:39:33.613Z,99767.63
2023-12-08T14:43:31.709Z,99767.21
2023-12-08T14:47:29.771Z,99768.02
2023-12-08T14:51:37.619Z,99783.70
2023-12-08T14:55:35.645Z,99785.02
2023-12-08T14:59:33.644Z,99790.55
2023-12-08T15:03:31.681Z,99785.91
2023-12-08T15:07:29.652Z,99784.61
2023-12-08T15:11:28.581Z,99780.34
2023-12-08T15:15:35.127Z,99771.92
2023-12-08T15:19:41.266Z,99766.29
2023-12-08T15:23:40.604Z,99768.81
2023-12-08T15:27:41.569Z,99776.77
2023-12-08T15:31:40.556Z,99777.16
2023-12-08T15:35:38.543Z,99777.05
2023-12-08T15:39:37.616Z,99780.87
2023-12-08T15:43:35.532Z,99783.82
2023-12-08T15:47:33.654Z,99783.10
2023-12-08T15:51:31.498Z,99785.79
2023-12-08T15:55:30.633Z,99792.74
2023-12-08T15:59:28.497Z,99795.17
2023-12-08T16:03:26.632Z,99790.77
2023-12-08T16:07:24.888Z,99789.23
2023-12-08T16:11:23.524Z,99786.21
2023-12-08T16:15:21.487Z,99783.10
2023-12-08T16:19:19.681Z,99786.17
2023-12-08T16:23:17.454Z,99785.08
2023-12-08T16:27:15.513Z,99784.20
2023-12-08T16:31:13.480Z,99777.63
2023-12-08T16:35:11.588Z,99775.46
2023-12-08T16:39:11.490Z,99773.80
2023-12-08T16:43:09.450Z,99766.71
2023-12-08T16:47:07.446Z,99764.02
2023-12-08T16:51:05.510Z,99767.61
2023-12-08T16:55:03.442Z,99760.34
2023-12-08T16:59:01.530Z,99759.48
2023-12-08T17:02:59.429Z,99757.93
2023-12-08T17:07:00.120Z,99752.67
2023-12-08T17:10:58.464Z,99757.61
2023-12-08T17:14:56.467Z,99753.11
2023-12-08T17:18:54.565Z,99761.28
2023-12-08T17:22:52.507Z,99765.66
2023-12-08T17:26:36.711Z,99774.87
2023-12-08T17:30:06.400Z,99776.54
2023-12-08T17:33:30.855Z,99780.58
2023-12-08T17:36:55.058Z,99781.74
2023-12-08T17:40:19.172Z,99784.45
2023-12-08T17:43:43.854Z,99788.83
2023-12-08T17:47:10.381Z,99787.85
2023-12-08T17:50:34.750Z,99792.66
2023-12-08T17:53:59.097Z,99796.48
2023-12-08T17:57:23.472Z,99796.19
2023-12-08T18:00:47.796Z,99792.77
2023-12-08T18:04:12.293Z,99779.98
2023-12-08T18:07:36.827Z,99774.55
2023-12-08T18:11:00.757Z,99777.50
2023-12-08T18:14:24.728Z,99772.47
2023-12-08T18:17:50.474Z,99766.90
2023-12-08T18:21:23.921Z,99766.73
2023-12-08T18:24:48.192Z,99759.47
2023-12-08T18:28:39.935Z,99762.40
2023-12-08T18:31:56.492Z,99765.70
2023-12-08T18:35:20.498Z,99769.66
2023-12-08T18:38:44.582Z,99766.30
2023-12-08T18:42:09.624Z,99768.19
2023-12-08T18:45:33.944Z,99771.73
2023-12-08T18:49:00.750Z,99773.83
2023-12-08T18:52:25.331Z,99782.34
2023-12-08T18:55:49.685Z,99777.56
2023-12-08T18:59:13.782Z,99776.38
2023-12-08T19:02:37.997Z,99773.50
2023-12-08T19:06:02.054Z,99773.56
2023-12-08T19:09:26.298Z,99771.05
2023-12-08T19:12:50.464Z,99770.11
2023-12-08T19:16:14.522Z,99772.57
2023-12-08T19:19:38.696Z,99773.78
2023-12-08T19:23:02.760Z,99777.07
2023-12-08T19:26:26.849Z,99775.78
2023-12-08T19:29:51.085Z,99767.46
2023-12-08T19:33:15.233Z,99767.80
2023-12-08T19:36:39.447Z,99764.88
2023-12-08T19:40:03.712Z,99758.17
2023-12-08T19:43:29.598Z,99765.62
2023-12-08T19:46:54.724Z,99755.63
2023-12-08T19:50:19.488Z,99758.27
2023-12-08T19:53:43.549Z,99765.62
2023-12-08T19:57:10.423Z,99767.66
2023-12-08T20:00:34.614Z,99762.65
2023-12-08T20:03:58.793Z,99758.59
2023-12-08T20:07:23.901Z,99763.55
2023-12-08T20:10:48.167Z,99762.78
2023-12-08T20:14:12.237Z,99756.52
2023-12-08T20:17:36.289Z,99760.45
2023-12-08T20:21:00.449Z,99756.48
2023-12-08T20:24:24.810Z,99759.36
2023-12-08T20:27:50.197Z,99766.91
2023-12-08T20:31:21.904Z,99764.35
2023-12-08T20:34:46.056Z,99761.17
2023-12-08T20:38:10.075Z,99767.95
2023-12-08T20:41:34.136Z,99758.86
2023-12-08T20:44:58.132Z,99760.36
2023-12-08T20:48:22.340Z,99760.67
2023-12-08T20:51:46.802Z,99761.27
2023-12-08T20:55:11.286Z,99760.16
2023-12-08T20:58:35.707Z,99759.84
2023-12-08T21:01:59.807Z,99765.63
2023-12-08T21:05:23.923Z,99775.73
2023-12-08T21:08:48.245Z,99772.30
2023-12-08T21:12:12.725Z,99773.79
2023-12-08T21:15:37.001Z,99767.91
2023-12-08T21:19:01.392Z,99759.31
2023-12-08T21:22:25.683Z,99755.41
2023-12-08T21:25:49.710Z,99759.13
2023-12-08T21:29:13.700Z,99762.13
2023-12-08T21:32:38.884Z,99763.31
2023-12-08T21:36:03.990Z,99765.66
2023-12-08T21:39:28.335Z,99767.42
2023-12-08T21:42:54.429Z,99765.08
2023-12-08T21:46:18.582Z,99767.05
2023-12-08T21:49:43.042Z,99765.02
2023-12-08T21:53:07.923Z,99762.36
2023-12-08T21:56:32.008Z,99753.42
2023-12-08T21:59:56.046Z,99753.29
2023-12-08T22:03:21.789Z,99753.55
2023-12-08T22:06:46.105Z,99750.71
2023-12-08T22:10:11.013Z,99754.20
2023-12-08T22:13:35.105Z,99750.20
2023-12-08T22:16:59.216Z,99755.40
2023-12-08T22:20:23.249Z,99758.92
2023-12-08T22:23:47.597Z,99764.47
2023-12-08T22:27:11.630Z,99761.23
2023-12-08T22:30:36.167Z,99763.52
2023-12-08T22:34:00.485Z,99756.40
2023-12-08T22:37:25.005Z,99755.33
2023-12-08T22:40:49.128Z,99755.80
2023-12-08T22:44:13.289Z,99762.69
2023-12-08T22:47:37.215Z,99757.72
2023-12-08T22:51:07.452Z,99761.83
2023-12-08T22:54:38.084Z,99756.94
2023-12-08T22:58:02.187Z,99754.67
2023-12-08T23:01:26.150Z,99748.30
2023-12-08T23:04:50.275Z,99743.08
2023-12-08T23:08:14.594Z,99746.36
2023-12-08T23:11:39.127Z,99743.98
2023-12-08T23:15:04.617Z,99740.44
2023-12-08T23:18:28.780Z,99736.37
2023-12-08T23:21:52.991Z,99732.28
2023-12-08T23:25:17.195Z,99730.13
2023-12-08T23:28:41.791Z,99729.12
2023-12-08T23:32:06.260Z,99725.13
2023-12-08T23:35:31.128Z,99725.52
2023-12-08T23:38:55.466Z,99722.66
2023-12-08T23:42:19.468Z,99720.82
2023-12-08T23:45:43.637Z,99719.89
2023-12-08T23:49:08.177Z,99716.58
2023-12-08T23:52:32.271Z,99707.88
2023-12-08T23:55:56.217Z,99706.20
2023-12-08T23:59:20.206Z,99706.34
